sensor_id;sensor_type;location;lat;lon;timestamp;P1;durP1;ratioP1;P2;durP2;ratioP2
38034;SDS011;23841;48.524;1.342;2022-07-17T00:01:54;3.80;;;1.50;;
38034;SDS011;23841;48.524;1.342;2022-07-17T00:04:19;4.38;;;1.40;;
38034;SDS011;23841;48.524;1.342;2022-07-17T00:06:45;2.13;;;1.10;;
38034;SDS011;23841;48.524;1.342;2022-07-17T00:09:10;2.17;;;1.40;;
38034;SDS011;23841;48.524;1.342;2022-07-17T00:11:35;2.72;;;1.38;;
38034;SDS011;23841;48.524;1.342;2022-07-17T00:14:01;4.00;;;1.33;;
38034;SDS011;23841;48.524;1.342;2022-07-17T00:16:27;1.83;;;1.17;;
38034;SDS011;23841;48.524;1.342;2022-07-17T00:18:52;3.20;;;1.52;;
38034;SDS011;23841;48.524;1.342;2022-07-17T00:21:17;2.92;;;1.42;;
38034;SDS011;23841;48.524;1.342;2022-07-17T00:23:43;3.25;;;1.40;;
38034;SDS011;23841;48.524;1.342;2022-07-17T00:26:09;3.13;;;1.55;;
38034;SDS011;23841;48.524;1.342;2022-07-17T00:28:34;2.75;;;1.48;;
38034;SDS011;23841;48.524;1.342;2022-07-17T00:31:00;2.42;;;1.30;;
38034;SDS011;23841;48.524;1.342;2022-07-17T00:33:25;2.72;;;1.23;;
38034;SDS011;23841;48.524;1.342;2022-07-17T00:35:51;5.30;;;1.60;;
38034;SDS011;23841;48.524;1.342;2022-07-17T00:38:16;2.58;;;1.60;;
38034;SDS011;23841;48.524;1.342;2022-07-17T00:40:41;3.25;;;1.30;;
38034;SDS011;23841;48.524;1.342;2022-07-17T00:43:07;3.38;;;1.50;;
38034;SDS011;23841;48.524;1.342;2022-07-17T00:45:32;3.28;;;1.60;;
38034;SDS011;23841;48.524;1.342;2022-07-17T00:48:02;3.67;;;1.77;;
38034;SDS011;23841;48.524;1.342;2022-07-17T00:50:31;2.25;;;1.30;;
38034;SDS011;23841;48.524;1.342;2022-07-17T00:52:58;2.88;;;1.48;;
38034;SDS011;23841;48.524;1.342;2022-07-17T00:55:24;3.17;;;1.73;;
38034;SDS011;23841;48.524;1.342;2022-07-17T00:57:50;2.50;;;1.52;;
38034;SDS011;23841;48.524;1.342;2022-07-17T01:00:19;2.72;;;1.40;;
38034;SDS011;23841;48.524;1.342;2022-07-17T01:02:49;3.35;;;1.33;;
38034;SDS011;23841;48.524;1.342;2022-07-17T01:05:17;2.55;;;1.48;;
38034;SDS011;23841;48.524;1.342;2022-07-17T01:07:43;3.03;;;1.55;;
38034;SDS011;23841;48.524;1.342;2022-07-17T01:10:09;2.67;;;1.48;;
38034;SDS011;23841;48.524;1.342;2022-07-17T01:12:36;3.30;;;1.55;;
38034;SDS011;23841;48.524;1.342;2022-07-17T01:15:02;3.72;;;1.50;;
38034;SDS011;23841;48.524;1.342;2022-07-17T01:17:29;4.20;;;1.38;;
38034;SDS011;23841;48.524;1.342;2022-07-17T01:19:56;3.67;;;1.50;;
38034;SDS011;23841;48.524;1.342;2022-07-17T01:22:21;5.13;;;1.50;;
38034;SDS011;23841;48.524;1.342;2022-07-17T01:24:47;2.60;;;1.25;;
38034;SDS011;23841;48.524;1.342;2022-07-17T01:27:12;3.95;;;1.40;;
38034;SDS011;23841;48.524;1.342;2022-07-17T01:29:38;5.53;;;1.70;;
38034;SDS011;23841;48.524;1.342;2022-07-17T01:32:04;3.78;;;1.58;;
38034;SDS011;23841;48.524;1.342;2022-07-17T01:34:30;3.92;;;1.63;;
38034;SDS011;23841;48.524;1.342;2022-07-17T01:36:56;2.42;;;1.50;;
38034;SDS011;23841;48.524;1.342;2022-07-17T01:39:22;2.20;;;1.27;;
38034;SDS011;23841;48.524;1.342;2022-07-17T01:42:08;2.72;;;1.25;;
38034;SDS011;23841;48.524;1.342;2022-07-17T01:44:34;3.47;;;1.23;;
38034;SDS011;23841;48.524;1.342;2022-07-17T01:46:59;3.70;;;1.92;;
38034;SDS011;23841;48.524;1.342;2022-07-17T01:49:25;3.03;;;1.73;;
38034;SDS011;23841;48.524;1.342;2022-07-17T01:51:50;2.45;;;1.40;;
38034;SDS011;23841;48.524;1.342;2022-07-17T01:54:16;2.50;;;1.38;;
38034;SDS011;23841;48.524;1.342;2022-07-17T01:56:41;3.40;;;1.50;;
38034;SDS011;23841;48.524;1.342;2022-07-17T01:59:07;3.00;;;1.73;;
38034;SDS011;23841;48.524;1.342;2022-07-17T02:01:33;2.75;;;1.58;;
38034;SDS011;23841;48.524;1.342;2022-07-17T02:03:58;2.85;;;1.55;;
38034;SDS011;23841;48.524;1.342;2022-07-17T02:06:23;3.55;;;1.88;;
38034;SDS011;23841;48.524;1.342;2022-07-17T02:08:49;3.00;;;1.50;;
38034;SDS011;23841;48.524;1.342;2022-07-17T02:11:16;2.33;;;1.25;;
38034;SDS011;23841;48.524;1.342;2022-07-17T02:13:42;2.33;;;1.23;;
38034;SDS011;23841;48.524;1.342;2022-07-17T02:16:08;2.47;;;1.45;;
38034;SDS011;23841;48.524;1.342;2022-07-17T02:18:33;3.17;;;1.40;;
38034;SDS011;23841;48.524;1.342;2022-07-17T02:20:59;2.75;;;1.30;;
38034;SDS011;23841;48.524;1.342;2022-07-17T02:23:24;3.42;;;1.70;;
38034;SDS011;23841;48.524;1.342;2022-07-17T02:25:50;2.80;;;1.67;;
38034;SDS011;23841;48.524;1.342;2022-07-17T02:28:15;2.30;;;1.20;;
38034;SDS011;23841;48.524;1.342;2022-07-17T02:30:41;2.67;;;1.40;;
38034;SDS011;23841;48.524;1.342;2022-07-17T02:33:06;3.15;;;1.48;;
38034;SDS011;23841;48.524;1.342;2022-07-17T02:35:32;2.72;;;1.35;;
38034;SDS011;23841;48.524;1.342;2022-07-17T02:37:58;3.60;;;1.80;;
38034;SDS011;23841;48.524;1.342;2022-07-17T02:40:24;2.75;;;1.52;;
38034;SDS011;23841;48.524;1.342;2022-07-17T02:42:49;2.70;;;1.40;;
38034;SDS011;23841;48.524;1.342;2022-07-17T02:45:14;2.35;;;1.02;;
38034;SDS011;23841;48.524;1.342;2022-07-17T02:47:40;2.30;;;1.33;;
38034;SDS011;23841;48.524;1.342;2022-07-17T02:50:07;2.63;;;1.33;;
38034;SDS011;23841;48.524;1.342;2022-07-17T02:52:33;2.33;;;1.42;;
38034;SDS011;23841;48.524;1.342;2022-07-17T02:54:59;4.43;;;1.65;;
38034;SDS011;23841;48.524;1.342;2022-07-17T02:57:25;3.05;;;1.80;;
38034;SDS011;23841;48.524;1.342;2022-07-17T02:59:50;3.28;;;1.20;;
38034;SDS011;23841;48.524;1.342;2022-07-17T03:02:16;5.43;;;1.40;;
38034;SDS011;23841;48.524;1.342;2022-07-17T03:04:41;4.13;;;1.48;;
38034;SDS011;23841;48.524;1.342;2022-07-17T03:07:07;2.58;;;1.40;;
38034;SDS011;23841;48.524;1.342;2022-07-17T03:09:32;2.58;;;1.40;;
38034;SDS011;23841;48.524;1.342;2022-07-17T03:11:58;2.78;;;1.50;;
38034;SDS011;23841;48.524;1.342;2022-07-17T03:14:24;2.88;;;1.42;;
38034;SDS011;23841;48.524;1.342;2022-07-17T03:16:49;2.92;;;1.17;;
38034;SDS011;23841;48.524;1.342;2022-07-17T03:19:15;2.97;;;1.45;;
38034;SDS011;23841;48.524;1.342;2022-07-17T03:21:40;2.45;;;1.33;;
38034;SDS011;23841;48.524;1.342;2022-07-17T03:24:06;2.33;;;1.33;;
38034;SDS011;23841;48.524;1.342;2022-07-17T03:26:32;6.47;;;1.80;;
38034;SDS011;23841;48.524;1.342;2022-07-17T03:28:57;3.05;;;1.40;;
38034;SDS011;23841;48.524;1.342;2022-07-17T03:31:23;3.40;;;1.52;;
38034;SDS011;23841;48.524;1.342;2022-07-17T03:33:48;2.40;;;1.30;;
38034;SDS011;23841;48.524;1.342;2022-07-17T03:36:13;2.75;;;1.40;;
38034;SDS011;23841;48.524;1.342;2022-07-17T03:38:39;2.42;;;1.58;;
38034;SDS011;23841;48.524;1.342;2022-07-17T03:41:04;3.47;;;1.50;;
38034;SDS011;23841;48.524;1.342;2022-07-17T03:43:30;3.40;;;1.70;;
38034;SDS011;23841;48.524;1.342;2022-07-17T03:45:55;2.88;;;1.40;;
38034;SDS011;23841;48.524;1.342;2022-07-17T03:48:20;1.65;;;1.08;;
38034;SDS011;23841;48.524;1.342;2022-07-17T03:50:46;2.72;;;1.73;;
38034;SDS011;23841;48.524;1.342;2022-07-17T03:53:11;3.40;;;1.63;;
38034;SDS011;23841;48.524;1.342;2022-07-17T03:55:37;2.25;;;1.30;;
38034;SDS011;23841;48.524;1.342;2022-07-17T03:58:02;2.08;;;1.08;;
38034;SDS011;23841;48.524;1.342;2022-07-17T04:00:28;3.38;;;1.30;;
38034;SDS011;23841;48.524;1.342;2022-07-17T04:02:53;3.42;;;1.60;;
38034;SDS011;23841;48.524;1.342;2022-07-17T04:05:18;3.08;;;1.75;;
38034;SDS011;23841;48.524;1.342;2022-07-17T04:07:44;2.50;;;1.35;;
38034;SDS011;23841;48.524;1.342;2022-07-17T04:10:11;2.30;;;1.45;;
38034;SDS011;23841;48.524;1.342;2022-07-17T04:12:38;2.15;;;1.30;;
38034;SDS011;23841;48.524;1.342;2022-07-17T04:15:05;2.67;;;1.23;;
38034;SDS011;23841;48.524;1.342;2022-07-17T04:17:32;2.47;;;1.35;;
38034;SDS011;23841;48.524;1.342;2022-07-17T04:19:58;4.03;;;1.60;;
38034;SDS011;23841;48.524;1.342;2022-07-17T04:22:23;3.53;;;1.33;;
38034;SDS011;23841;48.524;1.342;2022-07-17T04:24:49;3.10;;;1.50;;
38034;SDS011;23841;48.524;1.342;2022-07-17T04:27:16;2.60;;;1.42;;
38034;SDS011;23841;48.524;1.342;2022-07-17T04:29:41;4.78;;;1.63;;
38034;SDS011;23841;48.524;1.342;2022-07-17T04:32:07;3.42;;;1.30;;
38034;SDS011;23841;48.524;1.342;2022-07-17T04:34:32;2.72;;;1.40;;
38034;SDS011;23841;48.524;1.342;2022-07-17T04:36:59;2.08;;;1.30;;
38034;SDS011;23841;48.524;1.342;2022-07-17T04:39:25;3.53;;;1.30;;
38034;SDS011;23841;48.524;1.342;2022-07-17T04:41:50;2.65;;;0.98;;
38034;SDS011;23841;48.524;1.342;2022-07-17T04:44:16;2.33;;;1.23;;
38034;SDS011;23841;48.524;1.342;2022-07-17T04:46:42;2.72;;;1.38;;
38034;SDS011;23841;48.524;1.342;2022-07-17T04:49:08;4.38;;;1.38;;
38034;SDS011;23841;48.524;1.342;2022-07-17T04:51:34;3.38;;;1.58;;
38034;SDS011;23841;48.524;1.342;2022-07-17T04:53:59;3.08;;;1.23;;
38034;SDS011;23841;48.524;1.342;2022-07-17T04:56:25;3.75;;;1.40;;
38034;SDS011;23841;48.524;1.342;2022-07-17T04:58:50;3.67;;;1.50;;
38034;SDS011;23841;48.524;1.342;2022-07-17T05:01:16;2.70;;;1.40;;
38034;SDS011;23841;48.524;1.342;2022-07-17T05:03:41;2.75;;;1.40;;
38034;SDS011;23841;48.524;1.342;2022-07-17T05:06:06;3.75;;;1.52;;
38034;SDS011;23841;48.524;1.342;2022-07-17T05:08:33;2.90;;;1.70;;
38034;SDS011;23841;48.524;1.342;2022-07-17T05:10:59;2.47;;;1.40;;
38034;SDS011;23841;48.524;1.342;2022-07-17T05:13:25;2.92;;;1.30;;
38034;SDS011;23841;48.524;1.342;2022-07-17T05:15:50;2.38;;;1.25;;
38034;SDS011;23841;48.524;1.342;2022-07-17T05:18:16;2.97;;;1.30;;
38034;SDS011;23841;48.524;1.342;2022-07-17T05:20:42;2.30;;;1.35;;
38034;SDS011;23841;48.524;1.342;2022-07-17T05:23:07;3.90;;;1.75;;
38034;SDS011;23841;48.524;1.342;2022-07-17T05:25:33;2.33;;;1.20;;
38034;SDS011;23841;48.524;1.342;2022-07-17T05:27:58;2.90;;;1.48;;
38034;SDS011;23841;48.524;1.342;2022-07-17T05:30:24;3.13;;;1.30;;
38034;SDS011;23841;48.524;1.342;2022-07-17T05:32:49;2.65;;;1.48;;
38034;SDS011;23841;48.524;1.342;2022-07-17T05:35:15;3.75;;;1.52;;
38034;SDS011;23841;48.524;1.342;2022-07-17T05:37:40;2.78;;;1.40;;
38034;SDS011;23841;48.524;1.342;2022-07-17T05:40:06;2.75;;;1.40;;
38034;SDS011;23841;48.524;1.342;2022-07-17T05:42:32;2.22;;;1.08;;
38034;SDS011;23841;48.524;1.342;2022-07-17T05:44:57;4.13;;;1.42;;
38034;SDS011;23841;48.524;1.342;2022-07-17T05:47:24;2.80;;;1.67;;
38034;SDS011;23841;48.524;1.342;2022-07-17T05:49:49;3.13;;;1.63;;
38034;SDS011;23841;48.524;1.342;2022-07-17T05:52:15;1.77;;;1.20;;
38034;SDS011;23841;48.524;1.342;2022-07-17T05:54:41;1.95;;;1.20;;
38034;SDS011;23841;48.524;1.342;2022-07-17T05:57:07;5.93;;;1.45;;
38034;SDS011;23841;48.524;1.342;2022-07-17T05:59:32;2.47;;;1.30;;
38034;SDS011;23841;48.524;1.342;2022-07-17T06:01:58;2.92;;;1.40;;
38034;SDS011;23841;48.524;1.342;2022-07-17T06:04:23;3.88;;;1.30;;
38034;SDS011;23841;48.524;1.342;2022-07-17T06:06:48;1.52;;;0.88;;
38034;SDS011;23841;48.524;1.342;2022-07-17T06:09:14;2.60;;;1.30;;
38034;SDS011;23841;48.524;1.342;2022-07-17T06:11:39;2.60;;;1.38;;
38034;SDS011;23841;48.524;1.342;2022-07-17T06:14:05;2.22;;;1.48;;
38034;SDS011;23841;48.524;1.342;2022-07-17T06:16:30;3.13;;;1.55;;
38034;SDS011;23841;48.524;1.342;2022-07-17T06:18:55;3.30;;;1.60;;
38034;SDS011;23841;48.524;1.342;2022-07-17T06:21:21;2.28;;;1.05;;
38034;SDS011;23841;48.524;1.342;2022-07-17T06:23:46;2.35;;;1.20;;
38034;SDS011;23841;48.524;1.342;2022-07-17T06:26:12;3.85;;;1.20;;
38034;SDS011;23841;48.524;1.342;2022-07-17T06:28:37;2.13;;;1.27;;
38034;SDS011;23841;48.524;1.342;2022-07-17T06:31:02;2.30;;;1.00;;
38034;SDS011;23841;48.524;1.342;2022-07-17T06:33:28;2.05;;;1.10;;
38034;SDS011;23841;48.524;1.342;2022-07-17T06:35:53;3.00;;;1.48;;
38034;SDS011;23841;48.524;1.342;2022-07-17T06:38:19;2.78;;;1.40;;
38034;SDS011;23841;48.524;1.342;2022-07-17T06:40:44;2.15;;;1.23;;
38034;SDS011;23841;48.524;1.342;2022-07-17T06:43:10;2.88;;;1.17;;
38034;SDS011;23841;48.524;1.342;2022-07-17T06:45:35;3.03;;;1.60;;
38034;SDS011;23841;48.524;1.342;2022-07-17T06:48:01;2.53;;;1.25;;
38034;SDS011;23841;48.524;1.342;2022-07-17T06:50:27;2.10;;;1.35;;
38034;SDS011;23841;48.524;1.342;2022-07-17T06:52:53;2.80;;;1.20;;
38034;SDS011;23841;48.524;1.342;2022-07-17T06:55:18;1.80;;;0.90;;
38034;SDS011;23841;48.524;1.342;2022-07-17T06:57:43;2.30;;;1.20;;
38034;SDS011;23841;48.524;1.342;2022-07-17T07:00:09;2.42;;;1.15;;
38034;SDS011;23841;48.524;1.342;2022-07-17T07:02:35;3.58;;;1.17;;
38034;SDS011;23841;48.524;1.342;2022-07-17T07:05:01;2.50;;;1.20;;
38034;SDS011;23841;48.524;1.342;2022-07-17T07:07:27;2.25;;;1.10;;
38034;SDS011;23841;48.524;1.342;2022-07-17T07:09:52;2.75;;;1.13;;
38034;SDS011;23841;48.524;1.342;2022-07-17T07:12:17;1.73;;;1.10;;
38034;SDS011;23841;48.524;1.342;2022-07-17T07:14:43;1.88;;;1.17;;
38034;SDS011;23841;48.524;1.342;2022-07-17T07:17:08;3.38;;;1.33;;
38034;SDS011;23841;48.524;1.342;2022-07-17T07:19:34;2.63;;;1.17;;
38034;SDS011;23841;48.524;1.342;2022-07-17T07:22:00;2.17;;;1.30;;
38034;SDS011;23841;48.524;1.342;2022-07-17T07:24:25;2.22;;;0.75;;
38034;SDS011;23841;48.524;1.342;2022-07-17T07:26:51;2.25;;;1.13;;
38034;SDS011;23841;48.524;1.342;2022-07-17T07:29:16;3.92;;;1.40;;
38034;SDS011;23841;48.524;1.342;2022-07-17T07:31:43;2.25;;;1.08;;
38034;SDS011;23841;48.524;1.342;2022-07-17T07:34:09;2.60;;;1.25;;
38034;SDS011;23841;48.524;1.342;2022-07-17T07:36:34;2.67;;;1.10;;
38034;SDS011;23841;48.524;1.342;2022-07-17T07:39:00;2.60;;;1.33;;
38034;SDS011;23841;48.524;1.342;2022-07-17T07:41:25;3.85;;;1.50;;
38034;SDS011;23841;48.524;1.342;2022-07-17T07:43:51;1.73;;;0.90;;
38034;SDS011;23841;48.524;1.342;2022-07-17T07:46:16;3.03;;;1.20;;
38034;SDS011;23841;48.524;1.342;2022-07-17T07:48:42;2.13;;;1.25;;
38034;SDS011;23841;48.524;1.342;2022-07-17T07:51:07;2.88;;;1.10;;
38034;SDS011;23841;48.524;1.342;2022-07-17T07:53:33;5.43;;;1.85;;
38034;SDS011;23841;48.524;1.342;2022-07-17T07:55:58;4.55;;;1.80;;
38034;SDS011;23841;48.524;1.342;2022-07-17T07:58:24;6.55;;;1.75;;
38034;SDS011;23841;48.524;1.342;2022-07-17T08:00:49;5.10;;;1.80;;
38034;SDS011;23841;48.524;1.342;2022-07-17T08:03:15;2.95;;;1.70;;
38034;SDS011;23841;48.524;1.342;2022-07-17T08:05:40;4.70;;;1.35;;
38034;SDS011;23841;48.524;1.342;2022-07-17T08:08:06;5.22;;;1.58;;
38034;SDS011;23841;48.524;1.342;2022-07-17T08:10:32;3.13;;;1.42;;
38034;SDS011;23841;48.524;1.342;2022-07-17T08:12:58;3.45;;;1.50;;
38034;SDS011;23841;48.524;1.342;2022-07-17T08:15:24;1.70;;;0.90;;
38034;SDS011;23841;48.524;1.342;2022-07-17T08:17:50;4.18;;;1.42;;
38034;SDS011;23841;48.524;1.342;2022-07-17T08:20:17;3.58;;;1.40;;
38034;SDS011;23841;48.524;1.342;2022-07-17T08:22:45;2.80;;;1.35;;
38034;SDS011;23841;48.524;1.342;2022-07-17T08:25:17;2.15;;;1.13;;
38034;SDS011;23841;48.524;1.342;2022-07-17T08:27:43;2.03;;;1.10;;
38034;SDS011;23841;48.524;1.342;2022-07-17T08:30:09;2.33;;;1.27;;
38034;SDS011;23841;48.524;1.342;2022-07-17T08:32:37;2.83;;;1.35;;
38034;SDS011;23841;48.524;1.342;2022-07-17T08:35:03;2.63;;;1.20;;
38034;SDS011;23841;48.524;1.342;2022-07-17T08:37:29;2.53;;;1.30;;
38034;SDS011;23841;48.524;1.342;2022-07-17T08:39:56;2.78;;;1.27;;
38034;SDS011;23841;48.524;1.342;2022-07-17T08:42:22;2.40;;;1.10;;
38034;SDS011;23841;48.524;1.342;2022-07-17T08:44:48;3.83;;;1.08;;
38034;SDS011;23841;48.524;1.342;2022-07-17T08:47:14;2.17;;;1.17;;
38034;SDS011;23841;48.524;1.342;2022-07-17T08:49:44;2.17;;;1.17;;
38034;SDS011;23841;48.524;1.342;2022-07-17T08:52:13;2.05;;;1.10;;
38034;SDS011;23841;48.524;1.342;2022-07-17T08:54:39;4.13;;;1.55;;
38034;SDS011;23841;48.524;1.342;2022-07-17T08:57:07;3.70;;;1.17;;
38034;SDS011;23841;48.524;1.342;2022-07-17T08:59:35;4.35;;;1.55;;
38034;SDS011;23841;48.524;1.342;2022-07-17T09:02:00;2.13;;;1.13;;
38034;SDS011;23841;48.524;1.342;2022-07-17T09:04:28;3.22;;;1.67;;
38034;SDS011;23841;48.524;1.342;2022-07-17T09:07:01;3.72;;;1.30;;
38034;SDS011;23841;48.524;1.342;2022-07-17T09:09:28;2.83;;;1.42;;
38034;SDS011;23841;48.524;1.342;2022-07-17T09:11:54;4.68;;;1.50;;
38034;SDS011;23841;48.524;1.342;2022-07-17T09:14:20;2.72;;;1.17;;
38034;SDS011;23841;48.524;1.342;2022-07-17T09:16:56;5.10;;;1.45;;
38034;SDS011;23841;48.524;1.342;2022-07-17T09:22:19;2.28;;;1.00;;
38034;SDS011;23841;48.524;1.342;2022-07-17T09:24:48;3.80;;;1.20;;
38034;SDS011;23841;48.524;1.342;2022-07-17T09:29:57;2.85;;;1.20;;
38034;SDS011;23841;48.524;1.342;2022-07-17T09:32:35;3.20;;;1.30;;
38034;SDS011;23841;48.524;1.342;2022-07-17T09:35:03;3.30;;;1.75;;
38034;SDS011;23841;48.524;1.342;2022-07-17T09:37:31;3.22;;;1.00;;
38034;SDS011;23841;48.524;1.342;2022-07-17T09:39:58;2.17;;;0.98;;
38034;SDS011;23841;48.524;1.342;2022-07-17T09:42:29;4.00;;;1.50;;
38034;SDS011;23841;48.524;1.342;2022-07-17T09:44:57;2.95;;;1.27;;
38034;SDS011;23841;48.524;1.342;2022-07-17T09:47:24;3.58;;;1.55;;
38034;SDS011;23841;48.524;1.342;2022-07-17T09:49:53;5.65;;;1.70;;
38034;SDS011;23841;48.524;1.342;2022-07-17T09:52:21;3.10;;;1.25;;
38034;SDS011;23841;48.524;1.342;2022-07-17T09:54:49;2.35;;;1.15;;
38034;SDS011;23841;48.524;1.342;2022-07-17T09:57:19;2.10;;;1.20;;
38034;SDS011;23841;48.524;1.342;2022-07-17T09:59:49;3.90;;;1.38;;
38034;SDS011;23841;48.524;1.342;2022-07-17T10:02:16;3.58;;;1.33;;
38034;SDS011;23841;48.524;1.342;2022-07-17T10:04:41;2.75;;;1.20;;
38034;SDS011;23841;48.524;1.342;2022-07-17T10:07:08;3.08;;;1.20;;
38034;SDS011;23841;48.524;1.342;2022-07-17T10:09:34;2.25;;;1.20;;
38034;SDS011;23841;48.524;1.342;2022-07-17T10:12:00;3.00;;;1.27;;
38034;SDS011;23841;48.524;1.342;2022-07-17T10:14:26;1.60;;;0.90;;
38034;SDS011;23841;48.524;1.342;2022-07-17T10:16:52;2.72;;;1.27;;
38034;SDS011;23841;48.524;1.342;2022-07-17T10:19:22;2.25;;;1.10;;
38034;SDS011;23841;48.524;1.342;2022-07-17T10:21:54;3.25;;;1.20;;
38034;SDS011;23841;48.524;1.342;2022-07-17T10:24:30;2.50;;;0.90;;
38034;SDS011;23841;48.524;1.342;2022-07-17T10:26:56;1.63;;;0.80;;
38034;SDS011;23841;48.524;1.342;2022-07-17T10:31:51;1.55;;;0.90;;
38034;SDS011;23841;48.524;1.342;2022-07-17T10:34:17;2.75;;;1.08;;
38034;SDS011;23841;48.524;1.342;2022-07-17T10:36:44;1.58;;;0.80;;
38034;SDS011;23841;48.524;1.342;2022-07-17T10:39:19;1.77;;;0.98;;
38034;SDS011;23841;48.524;1.342;2022-07-17T10:41:58;2.22;;;0.98;;
38034;SDS011;23841;48.524;1.342;2022-07-17T10:44:28;2.30;;;1.02;;
38034;SDS011;23841;48.524;1.342;2022-07-17T10:46:55;1.58;;;0.73;;
38034;SDS011;23841;48.524;1.342;2022-07-17T10:49:25;1.08;;;0.65;;
38034;SDS011;23841;48.524;1.342;2022-07-17T10:51:51;1.27;;;0.73;;
38034;SDS011;23841;48.524;1.342;2022-07-17T10:54:17;2.65;;;1.00;;
38034;SDS011;23841;48.524;1.342;2022-07-17T10:56:56;1.73;;;0.90;;
38034;SDS011;23841;48.524;1.342;2022-07-17T10:59:22;2.92;;;1.00;;
38034;SDS011;23841;48.524;1.342;2022-07-17T11:01:55;3.15;;;1.00;;
38034;SDS011;23841;48.524;1.342;2022-07-17T11:04:21;2.40;;;0.80;;
38034;SDS011;23841;48.524;1.342;2022-07-17T11:06:47;1.45;;;0.80;;
38034;SDS011;23841;48.524;1.342;2022-07-17T11:09:12;1.67;;;0.82;;
38034;SDS011;23841;48.524;1.342;2022-07-17T11:16:44;3.22;;;1.02;;
38034;SDS011;23841;48.524;1.342;2022-07-17T11:19:20;3.05;;;1.10;;
38034;SDS011;23841;48.524;1.342;2022-07-17T11:21:56;1.27;;;0.75;;
38034;SDS011;23841;48.524;1.342;2022-07-17T11:24:24;3.35;;;1.48;;
38034;SDS011;23841;48.524;1.342;2022-07-17T11:26:51;1.60;;;0.80;;
38034;SDS011;23841;48.524;1.342;2022-07-17T11:29:17;1.70;;;0.70;;
38034;SDS011;23841;48.524;1.342;2022-07-17T11:31:43;2.47;;;1.17;;
38034;SDS011;23841;48.524;1.342;2022-07-17T11:34:09;1.83;;;0.90;;
38034;SDS011;23841;48.524;1.342;2022-07-17T11:36:40;1.58;;;0.85;;
38034;SDS011;23841;48.524;1.342;2022-07-17T11:39:08;2.08;;;1.00;;
38034;SDS011;23841;48.524;1.342;2022-07-17T11:41:40;0.82;;;0.60;;
38034;SDS011;23841;48.524;1.342;2022-07-17T11:44:08;1.25;;;0.80;;
38034;SDS011;23841;48.524;1.342;2022-07-17T11:46:35;1.38;;;0.73;;
38034;SDS011;23841;48.524;1.342;2022-07-17T11:49:02;3.80;;;1.10;;
38034;SDS011;23841;48.524;1.342;2022-07-17T11:54:04;2.65;;;0.93;;
38034;SDS011;23841;48.524;1.342;2022-07-17T11:56:31;1.27;;;0.73;;
38034;SDS011;23841;48.524;1.342;2022-07-17T11:58:57;2.35;;;0.65;;
38034;SDS011;23841;48.524;1.342;2022-07-17T12:01:22;1.33;;;0.65;;
38034;SDS011;23841;48.524;1.342;2022-07-17T12:03:58;2.50;;;0.80;;
38034;SDS011;23841;48.524;1.342;2022-07-17T12:06:24;1.58;;;1.00;;
38034;SDS011;23841;48.524;1.342;2022-07-17T12:08:52;2.38;;;1.00;;
38034;SDS011;23841;48.524;1.342;2022-07-17T12:11:18;1.70;;;0.82;;
38034;SDS011;23841;48.524;1.342;2022-07-17T12:13:44;1.65;;;0.80;;
38034;SDS011;23841;48.524;1.342;2022-07-17T12:16:18;1.17;;;0.68;;
38034;SDS011;23841;48.524;1.342;2022-07-17T12:21:33;2.13;;;0.73;;
38034;SDS011;23841;48.524;1.342;2022-07-17T12:24:17;1.38;;;0.77;;
38034;SDS011;23841;48.524;1.342;2022-07-17T12:26:44;1.77;;;1.08;;
38034;SDS011;23841;48.524;1.342;2022-07-17T12:29:09;1.05;;;0.65;;
38034;SDS011;23841;48.524;1.342;2022-07-17T12:31:34;1.50;;;0.60;;
38034;SDS011;23841;48.524;1.342;2022-07-17T12:34:00;3.53;;;1.00;;
38034;SDS011;23841;48.524;1.342;2022-07-17T12:36:25;1.70;;;1.10;;
38034;SDS011;23841;48.524;1.342;2022-07-17T12:38:51;1.25;;;0.80;;
38034;SDS011;23841;48.524;1.342;2022-07-17T12:41:16;1.35;;;0.93;;
38034;SDS011;23841;48.524;1.342;2022-07-17T12:43:42;1.70;;;0.90;;
38034;SDS011;23841;48.524;1.342;2022-07-17T12:46:09;2.38;;;1.45;;
38034;SDS011;23841;48.524;1.342;2022-07-17T12:48:34;2.83;;;1.20;;
38034;SDS011;23841;48.524;1.342;2022-07-17T12:51:02;1.73;;;0.90;;
38034;SDS011;23841;48.524;1.342;2022-07-17T12:53:28;1.60;;;0.95;;
38034;SDS011;23841;48.524;1.342;2022-07-17T12:55:53;1.90;;;1.05;;
38034;SDS011;23841;48.524;1.342;2022-07-17T12:58:19;2.15;;;1.05;;
38034;SDS011;23841;48.524;1.342;2022-07-17T13:00:44;1.90;;;1.02;;
38034;SDS011;23841;48.524;1.342;2022-07-17T13:03:10;1.52;;;0.88;;
38034;SDS011;23841;48.524;1.342;2022-07-17T13:05:37;2.05;;;1.30;;
38034;SDS011;23841;48.524;1.342;2022-07-17T13:08:03;1.77;;;1.13;;
38034;SDS011;23841;48.524;1.342;2022-07-17T13:10:29;1.70;;;1.20;;
38034;SDS011;23841;48.524;1.342;2022-07-17T13:12:54;1.27;;;0.70;;
38034;SDS011;23841;48.524;1.342;2022-07-17T13:15:20;1.65;;;0.93;;
38034;SDS011;23841;48.524;1.342;2022-07-17T13:17:45;1.70;;;0.90;;
38034;SDS011;23841;48.524;1.342;2022-07-17T13:20:12;3.33;;;0.90;;
38034;SDS011;23841;48.524;1.342;2022-07-17T13:22:38;2.90;;;1.02;;
38034;SDS011;23841;48.524;1.342;2022-07-17T13:25:04;1.73;;;0.88;;
38034;SDS011;23841;48.524;1.342;2022-07-17T13:27:29;2.08;;;1.05;;
38034;SDS011;23841;48.524;1.342;2022-07-17T13:29:55;2.42;;;1.08;;
38034;SDS011;23841;48.524;1.342;2022-07-17T13:32:20;2.53;;;1.13;;
38034;SDS011;23841;48.524;1.342;2022-07-17T13:34:47;1.27;;;0.80;;
38034;SDS011;23841;48.524;1.342;2022-07-17T13:37:13;2.08;;;0.98;;
38034;SDS011;23841;48.524;1.342;2022-07-17T13:39:39;1.83;;;0.90;;
38034;SDS011;23841;48.524;1.342;2022-07-17T13:42:04;2.35;;;1.13;;
38034;SDS011;23841;48.524;1.342;2022-07-17T13:44:30;3.55;;;1.15;;
38034;SDS011;23841;48.524;1.342;2022-07-17T13:46:55;1.85;;;1.05;;
38034;SDS011;23841;48.524;1.342;2022-07-17T13:49:23;2.45;;;1.08;;
38034;SDS011;23841;48.524;1.342;2022-07-17T13:51:49;3.03;;;0.90;;
38034;SDS011;23841;48.524;1.342;2022-07-17T13:54:14;1.77;;;0.93;;
38034;SDS011;23841;48.524;1.342;2022-07-17T13:56:40;1.98;;;1.10;;
38034;SDS011;23841;48.524;1.342;2022-07-17T13:59:05;1.10;;;0.73;;
38034;SDS011;23841;48.524;1.342;2022-07-17T14:01:31;2.83;;;1.00;;
38034;SDS011;23841;48.524;1.342;2022-07-17T14:03:57;2.00;;;0.98;;
38034;SDS011;23841;48.524;1.342;2022-07-17T14:06:24;2.65;;;1.10;;
38034;SDS011;23841;48.524;1.342;2022-07-17T14:08:49;1.77;;;0.98;;
38034;SDS011;23841;48.524;1.342;2022-07-17T14:11:14;2.05;;;0.88;;
38034;SDS011;23841;48.524;1.342;2022-07-17T14:13:40;2.67;;;1.33;;
38034;SDS011;23841;48.524;1.342;2022-07-17T14:16:06;1.77;;;0.90;;
38034;SDS011;23841;48.524;1.342;2022-07-17T14:18:33;1.95;;;1.02;;
38034;SDS011;23841;48.524;1.342;2022-07-17T14:20:58;2.22;;;1.17;;
38034;SDS011;23841;48.524;1.342;2022-07-17T14:23:24;1.42;;;0.95;;
38034;SDS011;23841;48.524;1.342;2022-07-17T14:25:49;2.47;;;1.35;;
38034;SDS011;23841;48.524;1.342;2022-07-17T14:28:15;1.50;;;0.80;;
38034;SDS011;23841;48.524;1.342;2022-07-17T14:30:41;1.48;;;0.85;;
38034;SDS011;23841;48.524;1.342;2022-07-17T14:33:06;1.98;;;1.00;;
38034;SDS011;23841;48.524;1.342;2022-07-17T14:35:32;1.55;;;1.00;;
38034;SDS011;23841;48.524;1.342;2022-07-17T14:37:58;1.45;;;0.90;;
38034;SDS011;23841;48.524;1.342;2022-07-17T14:40:24;2.97;;;1.00;;
38034;SDS011;23841;48.524;1.342;2022-07-17T14:42:49;1.42;;;0.90;;
38034;SDS011;23841;48.524;1.342;2022-07-17T14:45:15;1.92;;;1.13;;
38034;SDS011;23841;48.524;1.342;2022-07-17T14:47:40;1.45;;;1.00;;
38034;SDS011;23841;48.524;1.342;2022-07-17T14:50:07;2.10;;;1.00;;
38034;SDS011;23841;48.524;1.342;2022-07-17T14:52:33;2.13;;;1.05;;
38034;SDS011;23841;48.524;1.342;2022-07-17T14:54:58;2.70;;;1.25;;
38034;SDS011;23841;48.524;1.342;2022-07-17T14:57:24;1.63;;;1.20;;
38034;SDS011;23841;48.524;1.342;2022-07-17T14:59:50;1.83;;;0.93;;
38034;SDS011;23841;48.524;1.342;2022-07-17T15:02:15;2.03;;;1.02;;